createdAt,value
2017-08-08T00:00:59.226Z,99.99
2017-08-08T00:02:09.497Z,99.99
2017-08-08T00:03:19.771Z,99.99
2017-08-08T00:04:30.044Z,99.99
2017-08-08T00:05:40.315Z,99.99
2017-08-08T00:06:50.588Z,99.99
2017-08-08T00:08:00.558Z,99.99
2017-08-08T00:09:10.519Z,99.99
2017-08-08T00:10:20.791Z,99.99
2017-08-08T00:11:31.068Z,99.99
2017-08-08T00:12:41.343Z,99.99
2017-08-08T00:13:51.302Z,99.99
2017-08-08T00:15:01.260Z,99.99
2017-08-08T00:16:11.538Z,99.99
2017-08-08T00:17:21.811Z,99.99
2017-08-08T00:18:31.773Z,99.99
2017-08-08T00:19:42.043Z,99.99
2017-08-08T00:20:52.325Z,99.99
2017-08-08T00:22:02.611Z,99.99
2017-08-08T00:23:12.891Z,99.99
2017-08-08T00:24:23.170Z,99.99
2017-08-08T00:25:33.443Z,99.99
2017-08-08T00:26:43.724Z,99.99
2017-08-08T00:27:54.001Z,99.99
2017-08-08T00:29:04.281Z,99.99
2017-08-08T00:30:13.927Z,99.99
2017-08-08T00:31:23.892Z,99.99
2017-08-08T00:32:33.848Z,99.99
2017-08-08T00:33:44.122Z,99.99
2017-08-08T00:34:54.392Z,99.99
2017-08-08T00:36:04.667Z,99.99
2017-08-08T00:37:14.942Z,99.99
2017-08-08T00:38:25.224Z,99.99
2017-08-08T00:39:35.180Z,99.99
2017-08-08T00:40:45.136Z,99.99
2017-08-08T00:41:55.408Z,99.99
2017-08-08T00:43:05.684Z,99.99
2017-08-08T00:44:15.955Z,99.99
2017-08-08T00:45:26.231Z,99.99
2017-08-08T00:46:36.507Z,99.99
2017-08-08T00:47:46.468Z,99.99
2017-08-08T00:48:56.432Z,99.99
2017-08-08T00:50:06.710Z,99.99
2017-08-08T00:51:16.665Z,99.99
2017-08-08T00:52:26.936Z,99.99
2017-08-08T00:53:37.205Z,99.99
2017-08-08T00:54:47.476Z,99.99
2017-08-08T00:55:57.453Z,99.99
2017-08-08T00:57:07.733Z,99.99
2017-08-08T00:58:18.004Z,99.99
2017-08-08T00:59:27.971Z,99.99
2017-08-08T01:00:38.265Z,99.99
2017-08-08T01:01:48.232Z,99.99
2017-08-08T01:02:58.214Z,99.99
2017-08-08T01:04:08.175Z,99.99
2017-08-08T01:05:17.816Z,99.99
2017-08-08T01:06:28.088Z,99.99
2017-08-08T01:07:37.748Z,99.99
2017-08-08T01:08:48.018Z,99.99
2017-08-08T01:09:58.294Z,99.99
2017-08-08T01:11:08.566Z,99.99
2017-08-08T01:12:18.841Z,99.99
2017-08-08T01:13:28.809Z,99.99
2017-08-08T01:14:38.450Z,99.99
2017-08-08T01:15:48.406Z,99.99
2017-08-08T01:16:58.677Z,99.99
2017-08-08T01:18:08.633Z,99.99
2017-08-08T01:19:18.907Z,99.99
2017-08-08T01:20:28.232Z,99.99
2017-08-08T01:21:38.513Z,99.99
2017-08-08T01:22:48.784Z,99.99
2017-08-08T01:23:59.063Z,99.99
2017-08-08T01:25:09.352Z,99.99
2017-08-08T01:26:19.625Z,99.99
2017-08-08T01:27:29.897Z,99.99
2017-08-08T01:28:40.167Z,99.99
2017-08-08T01:29:49.811Z,99.99
2017-08-08T01:30:59.772Z,99.99
2017-08-08T01:32:10.042Z,99.99
2017-08-08T01:33:20.312Z,99.99
2017-08-08T01:34:30.609Z,99.99
2017-08-08T01:35:40.890Z,99.99
2017-08-08T01:36:50.861Z,99.99
2017-08-08T01:38:01.138Z,99.99
2017-08-08T01:39:11.408Z,99.99
2017-08-08T01:40:21.682Z,99.99
2017-08-08T01:41:31.961Z,99.99
2017-08-08T01:42:42.233Z,99.99
2017-08-08T01:43:52.512Z,99.99
2017-08-08T01:45:02.784Z,99.99
2017-08-08T01:46:12.743Z,99.99
2017-08-08T01:47:23.019Z,99.99
2017-08-08T01:48:33.293Z,99.99
2017-08-08T01:49:43.565Z,99.99
2017-08-08T01:50:53.837Z,99.99
2017-08-08T01:52:04.109Z,99.99
2017-08-08T01:53:14.067Z,99.99
2017-08-08T01:54:24.033Z,99.99
2017-08-08T01:55:34.306Z,99.99
2017-08-08T01:56:44.575Z,99.99
2017-08-08T01:57:54.530Z,99.99
2017-08-08T01:59:04.810Z,99.99
2017-08-08T02:00:15.081Z,99.99
2017-08-08T02:01:25.039Z,99.99
2017-08-08T02:02:35.310Z,99.99
2017-08-08T02:03:45.584Z,99.99
2017-08-08T02:04:55.854Z,99.99
2017-08-08T02:06:06.130Z,99.99
2017-08-08T02:07:15.777Z,99.99
2017-08-08T02:08:25.830Z,99.99
2017-08-08T02:09:36.102Z,99.99
2017-08-08T02:10:46.378Z,99.99
2017-08-08T02:11:56.652Z,99.99
2017-08-08T02:13:06.608Z,99.99
2017-08-08T02:14:16.880Z,99.99
2017-08-08T02:15:27.151Z,99.99
2017-08-08T02:16:37.115Z,99.99
2017-08-08T02:17:47.079Z,99.99
2017-08-08T02:18:57.348Z,99.99
2017-08-08T02:20:07.330Z,99.99
2017-08-08T02:21:17.288Z,99.99
2017-08-08T02:22:27.245Z,99.99
2017-08-08T02:23:37.205Z,99.99
2017-08-08T02:24:47.166Z,99.99
2017-08-08T02:25:57.442Z,99.99
2017-08-08T02:27:07.400Z,99.99
2017-08-08T02:28:17.672Z,99.99
2017-08-08T02:29:27.943Z,99.99
2017-08-08T02:30:38.221Z,99.99
2017-08-08T02:31:48.505Z,99.99
2017-08-08T02:32:58.152Z,99.99
2017-08-08T02:34:07.792Z,99.99
2017-08-08T02:35:18.070Z,99.99
2017-08-08T02:36:28.045Z,99.99
2017-08-08T02:37:38.330Z,99.99
2017-08-08T02:38:48.292Z,99.99
2017-08-08T02:39:58.254Z,99.99
2017-08-08T02:41:08.221Z,99.99
2017-08-08T02:42:18.502Z,99.99
2017-08-08T02:43:28.466Z,99.99
2017-08-08T02:44:38.754Z,99.99
2017-08-08T02:45:49.031Z,99.99
2017-08-08T02:46:59.306Z,99.99
2017-08-08T02:48:09.585Z,99.99
2017-08-08T02:49:19.864Z,99.99
2017-08-08T02:50:30.139Z,99.99
2017-08-08T02:51:40.102Z,99.99
2017-08-08T02:52:50.064Z,99.99
2017-08-08T02:54:00.337Z,99.99
2017-08-08T02:55:10.605Z,99.99
2017-08-08T02:56:20.883Z,99.99
2017-08-08T02:57:31.157Z,99.99
2017-08-08T02:58:41.114Z,99.99
2017-08-08T02:59:51.390Z,99.99
2017-08-08T03:01:01.350Z,99.99
2017-08-08T03:02:11.620Z,99.99
2017-08-08T03:03:21.582Z,99.99
2017-08-08T03:04:31.854Z,99.99
2017-08-08T03:05:42.148Z,99.99
2017-08-08T03:06:52.425Z,99.99
2017-08-08T03:08:02.382Z,99.99
2017-08-08T03:09:12.349Z,99.99
2017-08-08T03:10:22.312Z,99.99
2017-08-08T03:11:32.584Z,99.99
2017-08-08T03:12:42.856Z,99.99
2017-08-08T03:13:52.493Z,99.99
2017-08-08T03:15:01.511Z,99.99
2017-08-08T03:16:11.785Z,99.99
2017-08-08T03:17:21.744Z,99.99
2017-08-08T03:18:32.016Z,99.99
2017-08-08T03:19:42.288Z,99.99
2017-08-08T03:20:52.581Z,99.99
2017-08-08T03:22:02.852Z,99.99
2017-08-08T03:23:12.493Z,99.99
2017-08-08T03:24:22.766Z,99.99
2017-08-08T03:25:33.035Z,99.99
2017-08-08T03:26:42.996Z,99.99
2017-08-08T03:27:52.955Z,99.99
2017-08-08T03:29:02.912Z,99.99
2017-08-08T03:30:12.875Z,99.99
2017-08-08T03:31:22.853Z,99.99
2017-08-08T03:32:32.493Z,99.99
2017-08-08T03:33:42.769Z,99.99
2017-08-08T03:34:53.041Z,99.99
2017-08-08T03:36:03.310Z,99.99
2017-08-08T03:37:12.954Z,99.99
2017-08-08T03:38:22.915Z,99.99
2017-08-08T03:39:32.555Z,99.99
2017-08-08T03:40:42.830Z,99.99
2017-08-08T03:41:52.789Z,99.99
2017-08-08T03:43:03.063Z,99.99
2017-08-08T03:44:13.334Z,99.99
2017-08-08T03:45:23.612Z,99.99
2017-08-08T03:46:33.883Z,99.99
2017-08-08T03:47:43.524Z,99.99
2017-08-08T03:48:53.479Z,99.99
2017-08-08T03:50:03.437Z,99.99
2017-08-08T03:51:13.399Z,99.99
2017-08-08T03:52:23.671Z,99.99
2017-08-08T03:53:33.942Z,99.99
2017-08-08T03:54:44.209Z,99.99
2017-08-08T03:55:53.859Z,99.99
2017-08-08T03:57:04.131Z,99.99
2017-08-08T03:58:14.406Z,99.99
2017-08-08T03:59:24.927Z,99.99
2017-08-08T04:00:34.882Z,99.99
2017-08-08T04:01:45.161Z,99.99
2017-08-08T04:02:55.131Z,99.99
2017-08-08T04:04:05.433Z,99.99
2017-08-08T04:05:15.397Z,99.99
2017-08-08T04:06:25.361Z,99.99
2017-08-08T04:07:35.636Z,99.99
2017-08-08T04:08:45.592Z,99.99
2017-08-08T04:09:55.551Z,99.99
2017-08-08T04:11:05.505Z,99.99
2017-08-08T04:12:15.467Z,99.99
2017-08-08T04:13:25.742Z,99.99
2017-08-08T04:14:36.011Z,99.99
2017-08-08T04:15:45.967Z,99.99
2017-08-08T04:16:55.929Z,99.99
2017-08-08T04:18:06.196Z,99.99
2017-08-08T04:19:16.495Z,99.99
2017-08-08T04:20:26.452Z,99.99
2017-08-08T04:21:36.414Z,99.99
2017-08-08T04:22:46.370Z,99.99
2017-08-08T04:23:56.644Z,99.99
2017-08-08T04:25:06.620Z,99.99
2017-08-08T04:26:16.263Z,99.99
2017-08-08T04:27:26.538Z,99.99
2017-08-08T04:28:36.497Z,99.99
2017-08-08T04:29:46.454Z,99.99
2017-08-08T04:30:56.410Z,99.99
2017-08-08T04:32:06.696Z,99.99
2017-08-08T04:33:16.652Z,99.99
2017-08-08T04:34:26.605Z,99.99
2017-08-08T04:35:36.560Z,99.99
2017-08-08T04:36:46.516Z,99.99
2017-08-08T04:37:56.791Z,99.99
2017-08-08T04:39:07.064Z,99.99
2017-08-08T04:40:17.362Z,99.99
2017-08-08T04:41:27.315Z,99.99
2017-08-08T04:42:37.629Z,99.99
2017-08-08T04:43:47.902Z,99.99
2017-08-08T04:44:57.858Z,99.99
2017-08-08T04:46:08.130Z,99.99
2017-08-08T04:47:18.401Z,99.99
2017-08-08T04:48:28.669Z,99.99
2017-08-08T04:49:38.940Z,99.99
2017-08-08T04:50:49.218Z,99.99
2017-08-08T04:51:59.171Z,99.99
2017-08-08T04:53:09.135Z,99.99
2017-08-08T04:54:18.777Z,99.99
2017-08-08T04:55:29.045Z,99.99
2017-08-08T04:56:39.002Z,99.99
2017-08-08T04:57:49.271Z,99.99
2017-08-08T04:58:59.547Z,99.99
2017-08-08T05:00:09.821Z,99.99
2017-08-08T05:01:20.102Z,99.99
2017-08-08T05:02:30.058Z,99.99
2017-08-08T05:03:40.332Z,99.99
2017-08-08T05:04:50.610Z,99.99
2017-08-08T05:06:00.880Z,99.99
2017-08-08T05:07:11.154Z,99.99
2017-08-08T05:08:21.425Z,99.99
2017-08-08T05:09:31.695Z,99.99
2017-08-08T05:10:41.969Z,99.99
2017-08-08T05:11:52.248Z,99.99
2017-08-08T05:13:02.221Z,99.99
2017-08-08T05:14:12.493Z,99.99
2017-08-08T05:15:22.776Z,99.99
2017-08-08T05:16:33.048Z,99.99
2017-08-08T05:17:43.317Z,99.99
2017-08-08T05:18:53.280Z,99.99
2017-08-08T05:20:03.567Z,99.99
2017-08-08T05:21:12.897Z,99.99
2017-08-08T05:22:23.167Z,99.99
2017-08-08T05:23:33.437Z,99.99
2017-08-08T05:24:43.392Z,99.99
2017-08-08T05:25:53.349Z,99.99
2017-08-08T05:27:03.618Z,99.99
2017-08-08T05:28:12.943Z,99.99
2017-08-08T05:29:23.220Z,99.99
2017-08-08T05:30:33.200Z,99.99
2017-08-08T05:31:43.484Z,99.99
2017-08-08T05:32:53.754Z,99.99
2017-08-08T05:34:04.026Z,99.99
2017-08-08T05:35:13.668Z,99.99
2017-08-08T05:36:23.002Z,99.99
2017-08-08T05:37:32.961Z,99.99
2017-08-08T05:38:43.232Z,99.99
2017-08-08T05:39:53.505Z,99.99
2017-08-08T05:41:03.467Z,99.99
2017-08-08T05:42:13.739Z,99.99
2017-08-08T05:43:23.072Z,99.99
2017-08-08T05:44:33.349Z,99.99
2017-08-08T05:45:43.623Z,99.43
2017-08-08T05:46:53.262Z,99.43
2017-08-08T05:48:03.537Z,99.38
2017-08-08T05:49:13.496Z,99.48
2017-08-08T05:50:23.765Z,99.76
2017-08-08T05:51:33.722Z,98.42
2017-08-08T05:52:43.995Z,98.33
2017-08-08T05:53:53.954Z,97.66
2017-08-08T05:55:04.227Z,96.22
2017-08-08T05:56:14.181Z,96.99
2017-08-08T05:57:24.457Z,97.94
2017-08-08T05:58:34.724Z,95.07
2017-08-08T05:59:45.000Z,96.13
2017-08-08T06:00:55.272Z,95.94
2017-08-08T06:02:05.231Z,95.17
2017-08-08T06:03:15.208Z,95.56
2017-08-08T06:04:25.169Z,94.51
2017-08-08T06:05:35.447Z,94.89
2017-08-08T06:06:45.720Z,93.93
2017-08-08T06:07:55.990Z,95.46
2017-08-08T06:09:06.266Z,95.36
2017-08-08T06:10:15.911Z,94.12
2017-08-08T06:11:26.186Z,95.07
2017-08-08T06:12:36.459Z,93.65
2017-08-08T06:13:46.729Z,94.12
2017-08-08T06:14:57.007Z,93.16
2017-08-08T06:16:07.290Z,94.12
2017-08-08T06:17:17.249Z,93.45
2017-08-08T06:18:27.545Z,92.59
2017-08-08T06:19:37.817Z,93.69
2017-08-08T06:20:48.088Z,92.5
2017-08-08T06:21:58.049Z,92.07
2017-08-08T06:23:08.325Z,91.88
2017-08-08T06:24:18.300Z,92.74
2017-08-08T06:25:28.258Z,93.74
2017-08-08T06:26:38.542Z,93.12
2017-08-08T06:27:48.501Z,92.07
2017-08-08T06:28:58.777Z,92.64
2017-08-08T06:30:09.060Z,91.97
2017-08-08T06:31:19.336Z,93.31
2017-08-08T06:32:29.689Z,92.54
2017-08-08T06:33:39.974Z,92.74
2017-08-08T06:34:49.935Z,90.53
2017-08-08T06:36:00.213Z,90.73
2017-08-08T06:37:10.488Z,90.73
2017-08-08T06:38:20.445Z,91.11
2017-08-08T06:39:30.419Z,91.88
2017-08-08T06:40:40.695Z,93.69
2017-08-08T06:41:50.651Z,91.11
2017-08-08T06:43:02.925Z,91.68
2017-08-08T06:44:13.197Z,91.97
2017-08-08T06:45:23.473Z,92.02
2017-08-08T06:46:33.445Z,90.44
2017-08-08T06:47:43.406Z,91.73
2017-08-08T06:48:53.373Z,90.58
2017-08-08T06:50:03.645Z,90.2
2017-08-08T06:51:13.923Z,88.67
2017-08-08T06:52:24.197Z,89.81
2017-08-08T06:53:34.511Z,90.1
2017-08-08T06:54:44.786Z,90.1
2017-08-08T06:55:55.059Z,88.57
2017-08-08T06:57:05.021Z,89.72
2017-08-08T06:58:15.306Z,90.39
2017-08-08T06:59:25.585Z,89.43
2017-08-08T07:00:35.853Z,90.1
2017-08-08T07:01:45.810Z,87.52
2017-08-08T07:02:56.087Z,88.67
2017-08-08T07:04:05.740Z,88.29
2017-08-08T07:05:16.021Z,88.38
2017-08-08T07:06:26.307Z,87.33
2017-08-08T07:07:36.581Z,87.33
2017-08-08T07:08:46.849Z,87.43
2017-08-08T07:09:56.811Z,87.71
2017-08-08T07:11:07.086Z,87.14
2017-08-08T07:12:17.042Z,86.47
2017-08-08T07:13:26.998Z,87.62
2017-08-08T07:14:36.954Z,86.66
2017-08-08T07:15:46.910Z,89.81
2017-08-08T07:16:56.868Z,88.29
2017-08-08T07:18:07.140Z,87.62
2017-08-08T07:19:16.783Z,85.27
2017-08-08T07:20:27.055Z,87.37
2017-08-08T07:21:37.327Z,86.94
2017-08-08T07:22:47.289Z,84.98
2017-08-08T07:23:57.558Z,85.84
2017-08-08T07:25:07.522Z,87.27
2017-08-08T07:26:17.793Z,86.51
2017-08-08T07:27:28.062Z,86.8
2017-08-08T07:28:38.335Z,83.73
2017-08-08T07:29:48.607Z,85.75
2017-08-08T07:30:58.587Z,84.22
2017-08-08T07:32:08.227Z,84.02
2017-08-08T07:33:18.507Z,85.17
2017-08-08T07:34:28.149Z,86.99
2017-08-08T07:35:38.115Z,83.68
2017-08-08T07:36:48.384Z,83.06
2017-08-08T07:37:58.341Z,83.01
2017-08-08T07:39:08.301Z,84.06
2017-08-08T07:40:18.277Z,82.34
2017-08-08T07:41:28.238Z,82.3
2017-08-08T07:42:38.512Z,83.49
2017-08-08T07:43:48.467Z,84.26
2017-08-08T07:44:58.741Z,82.82
2017-08-08T07:46:08.699Z,83.3
2017-08-08T07:47:18.970Z,82.43
2017-08-08T07:48:28.930Z,82.34
2017-08-08T07:49:38.886Z,82.63
2017-08-08T07:50:48.535Z,85.31
2017-08-08T07:51:58.499Z,83.68
2017-08-08T07:53:08.456Z,82.63
2017-08-08T07:54:18.731Z,82.34
2017-08-08T07:55:29.005Z,81.62
2017-08-08T07:56:38.961Z,82.19
2017-08-08T07:57:49.259Z,82
2017-08-08T07:58:59.534Z,81.29
2017-08-08T08:00:09.807Z,81.43
2017-08-08T08:01:19.471Z,82
2017-08-08T08:02:29.430Z,82.38
2017-08-08T08:03:39.389Z,80.37
2017-08-08T08:04:49.666Z,80.27
2017-08-08T08:05:59.944Z,80.27
2017-08-08T08:07:10.217Z,80.18
2017-08-08T08:08:20.498Z,79.7
2017-08-08T08:09:30.467Z,78.36
2017-08-08T08:10:40.753Z,77.02
2017-08-08T08:11:51.026Z,78.27
2017-08-08T08:13:00.984Z,78.17
2017-08-08T08:14:10.943Z,78.78
2017-08-08T08:15:21.215Z,80.51
2017-08-08T08:16:31.486Z,78.59
2017-08-08T08:17:41.446Z,76
2017-08-08T08:18:51.404Z,77.25
2017-08-08T08:20:01.680Z,75.9
2017-08-08T08:21:11.326Z,76
2017-08-08T08:22:21.598Z,75.23
2017-08-08T08:23:31.873Z,76.57
2017-08-08T08:24:41.831Z,75.71
2017-08-08T08:25:51.791Z,73.03
2017-08-08T08:27:02.071Z,74.27
2017-08-08T08:28:11.718Z,75.37
2017-08-08T08:29:21.694Z,75.46
2017-08-08T08:30:31.971Z,74.98
2017-08-08T08:31:42.254Z,75.85
2017-08-08T08:32:52.219Z,77
2017-08-08T08:34:02.496Z,73.65
2017-08-08T08:35:12.486Z,72.97
2017-08-08T08:36:22.760Z,69.65
2017-08-08T08:37:33.053Z,68.66
2017-08-08T08:38:43.324Z,70.03
2017-08-08T08:39:52.684Z,70.03
2017-08-08T08:41:02.961Z,71.37
2017-08-08T08:42:12.919Z,71.37
2017-08-08T08:43:22.567Z,71.95
2017-08-08T08:44:32.527Z,69.07
2017-08-08T08:45:42.494Z,67.35
2017-08-08T08:46:52.775Z,70.13
2017-08-08T08:48:03.047Z,71.37
2017-08-08T08:49:13.009Z,71.61
2017-08-08T08:50:22.971Z,66.42
2017-08-08T08:51:32.965Z,64.69
2017-08-08T08:52:43.241Z,67.47
2017-08-08T08:53:52.885Z,67.38
2017-08-08T08:55:03.163Z,68.05
2017-08-08T08:56:13.490Z,67.96
2017-08-08T08:57:23.141Z,63.25
2017-08-08T08:58:33.100Z,61.33
2017-08-08T08:59:43.379Z,63.25
2017-08-08T09:00:53.654Z,63.25
2017-08-08T09:02:03.618Z,65.75
2017-08-08T09:03:13.584Z,64.5
2017-08-08T09:04:23.859Z,66.61
2017-08-08T09:05:33.819Z,66.52
2017-08-08T09:06:43.778Z,65.36
2017-08-08T09:07:54.052Z,66.23
2017-08-08T09:09:04.327Z,68.24
2017-08-08T09:10:13.985Z,66.71
2017-08-08T09:11:24.259Z,68.37
2017-08-08T09:12:34.551Z,67.99
2017-08-08T09:13:44.198Z,65.59
2017-08-08T09:14:54.468Z,65.3
2017-08-08T09:16:04.751Z,65.97
2017-08-08T09:17:14.088Z,63.38
2017-08-08T09:18:24.368Z,64.15
2017-08-08T09:19:34.333Z,65.4
2017-08-08T09:20:44.637Z,62.35
2017-08-08T09:21:54.597Z,62.26
2017-08-08T09:23:04.876Z,64.76
2017-08-08T09:24:14.844Z,65.33
2017-08-08T09:25:25.128Z,65.53
2017-08-08T09:26:35.086Z,64.09
2017-08-08T09:27:45.049Z,63.22
2017-08-08T09:28:55.323Z,65.23
2017-08-08T09:30:05.288Z,68.95
2017-08-08T09:31:15.248Z,64.85
2017-08-08T09:32:25.212Z,66.26
2017-08-08T09:33:35.169Z,65.69
2017-08-08T09:34:45.129Z,65.78
2017-08-08T09:35:55.417Z,65.97
2017-08-08T09:37:05.693Z,64.82
2017-08-08T09:38:15.981Z,65.4
2017-08-08T09:39:25.957Z,66.64
2017-08-08T09:40:35.919Z,68.18
2017-08-08T09:41:46.209Z,65.97
2017-08-08T09:42:56.166Z,66.36
2017-08-08T09:44:06.447Z,66.33
2017-08-08T09:45:16.092Z,68.91
2017-08-08T09:46:26.372Z,67.99
2017-08-08T09:47:36.648Z,68.08
2017-08-08T09:48:46.613Z,67.29
2017-08-08T09:49:56.888Z,65.69
2017-08-08T09:51:07.170Z,67.29
2017-08-08T09:52:17.452Z,67.41
2017-08-08T09:53:27.722Z,66.55
2017-08-08T09:54:37.684Z,66.64
2017-08-08T09:55:47.673Z,67.38
2017-08-08T09:56:57.632Z,68.18
2017-08-08T09:58:07.600Z,66.84
2017-08-08T09:59:17.892Z,66.84
2017-08-08T10:00:28.165Z,64.92
2017-08-08T10:01:38.238Z,64.53
2017-08-08T10:02:48.514Z,65.88
2017-08-08T10:03:58.790Z,66.64
2017-08-08T10:05:09.064Z,61.17
2017-08-08T10:06:19.026Z,62.68
2017-08-08T10:07:29.299Z,62.87
2017-08-08T10:08:38.945Z,64.31
2017-08-08T10:09:49.218Z,62.68
2017-08-08T10:10:59.496Z,64.53
2017-08-08T10:12:09.773Z,65.78
2017-08-08T10:13:20.052Z,61.27
2017-08-08T10:14:30.329Z,63.45
2017-08-08T10:15:40.289Z,65.4
2017-08-08T10:16:50.575Z,64.15
2017-08-08T10:18:00.547Z,64.43
2017-08-08T10:19:10.835Z,63.19
2017-08-08T10:20:21.113Z,62.99
2017-08-08T10:21:31.398Z,61.65
2017-08-08T10:22:41.681Z,60.78
2017-08-08T10:23:51.954Z,62.23
2017-08-08T10:25:01.916Z,61.2
2017-08-08T10:26:11.892Z,60.91
2017-08-08T10:27:22.166Z,59.57
2017-08-08T10:28:32.450Z,62.26
2017-08-08T10:29:42.729Z,60.53
2017-08-08T10:30:52.687Z,59.86
2017-08-08T10:32:02.335Z,62.07
2017-08-08T10:33:12.634Z,59.38
2017-08-08T10:34:22.593Z,63.12
2017-08-08T10:35:32.255Z,62.16
2017-08-08T10:36:42.217Z,63.32
2017-08-08T10:37:52.492Z,62.1
2017-08-08T10:39:02.454Z,60.37
2017-08-08T10:40:12.731Z,62.64
2017-08-08T10:41:23.008Z,62.45
2017-08-08T10:42:33.286Z,62.19
2017-08-08T10:43:43.573Z,60.94
2017-08-08T10:44:53.542Z,62.38
2017-08-08T10:46:03.822Z,59.5
2017-08-08T10:47:13.896Z,60.85
2017-08-08T10:48:23.546Z,62.38
2017-08-08T10:49:33.509Z,60.72
2017-08-08T10:50:43.791Z,61.71
2017-08-08T10:51:54.070Z,60.27
2017-08-08T10:53:04.348Z,58.64
2017-08-08T10:54:14.320Z,59.6
2017-08-08T10:55:24.602Z,60.75
2017-08-08T10:56:34.875Z,59.12
2017-08-08T10:57:44.836Z,60.46
2017-08-08T10:58:54.482Z,60.85
2017-08-08T11:00:04.772Z,57
2017-08-08T11:01:15.050Z,59.31
2017-08-08T11:02:25.333Z,54.24
2017-08-08T11:03:35.614Z,53.92
2017-08-08T11:04:45.894Z,54.89
2017-08-08T11:05:56.176Z,55.08
2017-08-08T11:07:06.451Z,55.46
2017-08-08T11:08:16.105Z,57.48
2017-08-08T11:09:26.386Z,55.85
2017-08-08T11:10:36.664Z,57.77
2017-08-08T11:11:46.641Z,56.04
2017-08-08T11:12:56.921Z,56.45
2017-08-08T11:14:07.198Z,56.43
2017-08-08T11:15:17.480Z,56.52
2017-08-08T11:16:27.755Z,57.77
2017-08-08T11:17:39.820Z,54.79
2017-08-08T11:18:50.103Z,55.76
2017-08-08T11:20:00.064Z,54.5
2017-08-08T11:21:09.717Z,53.45
2017-08-08T11:22:20.006Z,54.41
2017-08-08T11:23:30.279Z,55.08
2017-08-08T11:24:40.240Z,55.66
2017-08-08T11:25:50.520Z,56.91
2017-08-08T11:26:59.851Z,56.14
2017-08-08T11:28:10.128Z,56.43
2017-08-08T11:29:20.408Z,56.81
2017-08-08T11:30:30.382Z,55.4
2017-08-08T11:31:40.031Z,56.65
2017-08-08T11:32:50.308Z,53.59
2017-08-08T11:34:00.589Z,53.21
2017-08-08T11:35:10.866Z,52.56
2017-08-08T11:36:21.146Z,50.18
2017-08-08T11:37:31.111Z,50.09
2017-08-08T11:38:41.075Z,49.82
2017-08-08T11:39:50.720Z,50.59
2017-08-08T11:41:00.995Z,52.76
2017-08-08T11:42:11.277Z,47
2017-08-08T11:43:21.565Z,46.03
2017-08-08T11:44:31.844Z,48.74
2017-08-08T11:45:41.809Z,45.76
2017-08-08T11:46:52.094Z,46.25
2017-08-08T11:48:02.069Z,44.92
2017-08-08T11:49:12.352Z,44.43
2017-08-08T11:50:22.005Z,44.7
2017-08-08T11:51:32.311Z,45.4
2017-08-08T11:52:42.599Z,45.76
2017-08-08T11:53:52.882Z,45.11
2017-08-08T11:55:03.163Z,45.31
2017-08-08T11:56:13.444Z,44.26
2017-08-08T11:57:23.411Z,43.57
2017-08-08T11:58:33.069Z,45.11
2017-08-08T11:59:43.039Z,45.4
2017-08-08T12:00:53.009Z,43.88
2017-08-08T12:02:03.295Z,43.9
2017-08-08T12:03:13.263Z,45.64
2017-08-08T12:04:23.558Z,43.71
2017-08-08T12:05:33.526Z,44.21
2017-08-08T12:06:43.810Z,45.49
2017-08-08T12:07:54.123Z,40.77
2017-08-08T12:09:04.122Z,40.96
2017-08-08T12:10:14.408Z,40.86
2017-08-08T12:11:24.691Z,41.74
2017-08-08T12:12:34.976Z,41.95
2017-08-08T12:13:44.633Z,40.91
2017-08-08T12:14:54.916Z,40.13
2017-08-08T12:16:04.894Z,43.33
2017-08-08T12:17:15.186Z,40.92
2017-08-08T12:18:25.157Z,38.81
2017-08-08T12:19:35.139Z,38.54
2017-08-08T12:20:45.118Z,39.03
2017-08-08T12:21:55.091Z,36.42
2017-08-08T12:23:05.387Z,37.32
2017-08-08T12:24:15.360Z,35.47
2017-08-08T12:25:25.342Z,39.06
2017-08-08T12:26:35.314Z,39.1
2017-08-08T12:27:45.287Z,36.4
2017-08-08T12:28:55.274Z,33.56
2017-08-08T12:30:05.594Z,36.57
2017-08-08T12:31:15.882Z,33.38
2017-08-08T12:32:25.861Z,33.56
2017-08-08T12:33:36.157Z,32.79
2017-08-08T12:34:46.133Z,32.29
2017-08-08T12:35:56.418Z,34.82
2017-08-08T12:37:05.762Z,32.31
2017-08-08T12:38:16.057Z,31.71
2017-08-08T12:39:26.029Z,32.67
2017-08-08T12:40:36.317Z,34.32
2017-08-08T12:41:46.611Z,33.73
2017-08-08T12:42:56.583Z,32.97
2017-08-08T12:44:06.876Z,32.11
2017-08-08T12:45:16.861Z,33.58
2017-08-08T12:46:27.155Z,32.99
2017-08-08T12:47:37.481Z,33.77
2017-08-08T12:48:47.773Z,31.16
2017-08-08T12:49:57.751Z,31.9
2017-08-08T12:51:08.046Z,32.47
2017-08-08T12:52:18.338Z,33.23
2017-08-08T12:53:28.629Z,32.17
2017-08-08T12:54:38.919Z,31.68
2017-08-08T12:55:49.206Z,31.1
2017-08-08T12:56:59.493Z,30.9
2017-08-08T12:58:09.787Z,33.34
2017-08-08T12:59:20.080Z,32.29
2017-08-08T13:00:30.373Z,31.13
2017-08-08T13:01:40.348Z,30.75
2017-08-08T13:02:50.321Z,31.93
2017-08-08T13:04:00.294Z,31.73
2017-08-08T13:05:10.583Z,32.39
2017-08-08T13:06:20.553Z,33.34
2017-08-08T13:07:30.535Z,33.54
2017-08-08T13:08:40.193Z,31.63
2017-08-08T13:09:50.162Z,32
2017-08-08T13:11:00.135Z,33.06
2017-08-08T13:12:10.425Z,31.48
2017-08-08T13:13:20.394Z,32.75
2017-08-08T13:14:30.056Z,31.38
2017-08-08T13:15:40.341Z,31.38
2017-08-08T13:16:50.629Z,33.91
2017-08-08T13:18:00.917Z,33.34
2017-08-08T13:19:10.580Z,32.4
2017-08-08T13:20:20.556Z,32.91
2017-08-08T13:21:30.534Z,31.66
2017-08-08T13:22:40.820Z,28.94
2017-08-08T13:23:51.117Z,29.83
2017-08-08T13:25:01.410Z,29.54
2017-08-08T13:26:11.709Z,30.52
2017-08-08T13:27:21.997Z,30.73
2017-08-08T13:28:31.974Z,29.57
2017-08-08T13:29:41.951Z,28.59
2017-08-08T13:30:51.926Z,27.73
2017-08-08T13:32:01.593Z,27.05
2017-08-08T13:33:11.887Z,26.09
2017-08-08T13:34:21.547Z,24.63
2017-08-08T13:35:31.212Z,26.07
2017-08-08T13:36:41.501Z,26.27
2017-08-08T13:37:51.798Z,28.3
2017-08-08T13:39:01.776Z,25.96
2017-08-08T13:40:12.065Z,28.38
2017-08-08T13:41:22.041Z,27.59
2017-08-08T13:42:32.334Z,27.22
2017-08-08T13:43:42.624Z,27.13
2017-08-08T13:44:52.914Z,27.61
2017-08-08T13:46:03.210Z,27.69
2017-08-08T13:47:13.193Z,28.19
2017-08-08T13:48:23.170Z,28.69
2017-08-08T13:49:33.460Z,27.93
2017-08-08T13:50:43.754Z,25.1
2017-08-08T13:51:54.043Z,26.87
2017-08-08T13:53:04.339Z,25.12
2017-08-08T13:54:14.639Z,26.88
2017-08-08T13:55:24.938Z,25.44
2017-08-08T13:56:35.246Z,25.54
2017-08-08T13:57:45.538Z,26.64
2017-08-08T13:58:55.544Z,24.77
2017-08-08T14:00:05.519Z,25.85
2017-08-08T14:01:15.814Z,22.63
2017-08-08T14:02:25.810Z,23.5
2017-08-08T14:03:35.787Z,23.41
2017-08-08T14:04:45.773Z,24.29
2017-08-08T14:05:55.808Z,24.87
2017-08-08T14:07:05.794Z,24.87
2017-08-08T14:08:15.454Z,24.66
2017-08-08T14:09:25.745Z,23.88
2017-08-08T14:10:35.722Z,25.83
2017-08-08T14:11:45.695Z,25.22
2017-08-08T14:12:56.006Z,27.52
2017-08-08T14:14:06.300Z,28.38
2017-08-08T14:15:16.597Z,28.36
2017-08-08T14:16:26.576Z,30.47
2017-08-08T14:17:36.546Z,31.43
2017-08-08T14:18:46.212Z,31.03
2017-08-08T14:19:55.870Z,31.13
2017-08-08T14:21:06.164Z,30.35
2017-08-08T14:22:15.830Z,30.05
2017-08-08T14:23:26.121Z,31.32
2017-08-08T14:24:36.409Z,30.46
2017-08-08T14:25:46.384Z,31.45
2017-08-08T14:26:56.668Z,29.78
2017-08-08T14:28:06.011Z,30.83
2017-08-08T14:29:15.356Z,30.04
2017-08-08T14:30:25.328Z,30.91
2017-08-08T14:31:35.614Z,31.7
2017-08-08T14:32:45.900Z,32.39
2017-08-08T14:33:55.888Z,28.9
2017-08-08T14:35:05.238Z,29.49
2017-08-08T14:36:15.524Z,29.88
2017-08-08T14:37:25.814Z,29.78
2017-08-08T14:38:36.104Z,28.14
2017-08-08T14:39:46.398Z,28.14
2017-08-08T14:40:56.370Z,28.03
2017-08-08T14:42:06.658Z,29.02
2017-08-08T14:43:16.634Z,30.28
2017-08-08T14:44:26.923Z,29.69
2017-08-08T14:45:37.214Z,29.69
2017-08-08T14:46:47.507Z,29.02
2017-08-08T14:47:57.479Z,28.9
2017-08-08T14:49:07.462Z,30.18
2017-08-08T14:50:16.809Z,31.06
2017-08-08T14:51:26.465Z,29.21
2017-08-08T14:52:36.441Z,29.21
2017-08-08T14:53:46.101Z,27.94
2017-08-08T14:54:55.451Z,29.79
2017-08-08T14:56:05.451Z,30.88
2017-08-08T14:57:15.428Z,28.64
2017-08-08T14:58:25.719Z,27.76
2017-08-08T14:59:35.689Z,29.71
2017-08-08T15:00:45.665Z,29.81
2017-08-08T15:01:55.645Z,29.71
2017-08-08T15:03:05.941Z,30.11
2017-08-08T15:04:15.909Z,29.54
2017-08-08T15:05:25.884Z,29.74